Time;durP1;ratioP1;P1;durP2;ratioP2;P2;SDS_P1;SDS_P2;PMS_P1;PMS_P2;Temp;Humidity;BMP_temperature;BMP_pressure;BME280_temperature;BME280_humidity;BME280_pressure;Samples;Min_cycle;Max_cycle;Signal;HPM_P1;HPM_P2
2022/06/29 00:00:51;;;;;;;7.67;5.53;;;16.70;99.90;;;;;;4991521;28;20207;-75
2022/06/29 00:03:16;;;;;;;7.67;6.53;;;16.70;99.90;;;;;;4992138;28;20846;-76
2022/06/29 00:05:42;;;;;;;8.80;5.73;;;16.70;99.90;;;;;;4991920;28;20622;-76
2022/06/29 00:08:07;;;;;;;5.70;5.30;;;16.70;99.90;;;;;;4992254;28;20180;-75
2022/06/29 00:10:37;;;;;;;6.07;5.67;;;16.70;99.90;;;;;;4991722;28;20254;-74
2022/06/29 00:13:03;;;;;;;6.80;6.30;;;16.60;99.90;;;;;;4991832;28;20203;-76
2022/06/29 00:15:29;;;;;;;6.03;5.73;;;16.70;99.90;;;;;;4991912;28;20933;-76
2022/06/29 00:17:54;;;;;;;6.43;5.80;;;16.60;99.90;;;;;;4991928;28;20422;-76
2022/06/29 00:20:21;;;;;;;5.00;4.70;;;16.50;99.90;;;;;;4995318;28;20521;-76
2022/06/29 00:22:48;;;;;;;5.57;5.17;;;16.50;99.90;;;;;;4995158;28;20204;-76
2022/06/29 00:25:14;;;;;;;6.13;5.70;;;16.50;99.90;;;;;;4995370;28;20815;-76
2022/06/29 00:27:41;;;;;;;6.03;5.10;;;16.50;99.90;;;;;;4995649;28;20464;-76
2022/06/29 00:30:07;;;;;;;6.30;5.67;;;16.50;99.90;;;;;;4995440;28;20437;-76
2022/06/29 00:32:33;;;;;;;8.30;6.43;;;16.50;99.90;;;;;;4995777;28;20491;-75
2022/06/29 00:34:59;;;;;;;9.20;5.90;;;16.50;99.90;;;;;;4995485;28;20446;-76
2022/06/29 00:37:26;;;;;;;5.90;5.50;;;16.40;99.90;;;;;;4995690;28;20175;-76
2022/06/29 00:39:51;;;;;;;8.93;6.43;;;16.40;99.90;;;;;;4995214;28;20462;-74
2022/06/29 00:42:17;;;;;;;8.17;6.00;;;16.30;99.90;;;;;;4995045;28;20433;-76
2022/06/29 00:44:42;;;;;;;7.80;5.57;;;16.30;99.90;;;;;;4995254;28;20723;-73
2022/06/29 00:47:09;;;;;;;5.63;5.10;;;16.30;99.90;;;;;;4995307;28;20198;-76
2022/06/29 00:49:34;;;;;;;5.73;5.33;;;16.20;99.90;;;;;;4995306;28;20242;-75
2022/06/29 00:52:11;;;;;;;5.97;5.47;;;16.30;99.90;;;;;;4994932;28;20438;-76
2022/06/29 00:54:40;;;;;;;6.60;5.53;;;16.30;99.90;;;;;;4995057;28;20179;-75
2022/06/29 00:57:11;;;;;;;6.00;5.60;;;16.30;99.90;;;;;;4995113;28;20415;-76
2022/06/29 00:59:48;;;;;;;6.10;5.50;;;16.30;99.90;;;;;;4994958;28;20552;-75
2022/06/29 02:35:35;;;;;;;6.87;6.37;;;15.80;99.90;;;;;;4975788;28;20391;-76
2022/06/29 02:38:00;;;;;;;7.53;6.77;;;15.80;99.90;;;;;;4976534;28;20931;-76
2022/06/29 02:40:26;;;;;;;7.40;6.80;;;15.70;99.90;;;;;;4975917;28;20246;-75
2022/06/29 02:42:51;;;;;;;6.70;6.20;;;15.70;99.90;;;;;;4973811;28;20203;-76
2022/06/29 02:45:17;;;;;;;6.83;5.93;;;15.70;99.90;;;;;;4974128;28;20184;-74
2022/06/29 02:47:42;;;;;;;7.63;7.10;;;15.70;99.90;;;;;;4974000;28;20260;-73
2022/06/29 02:50:08;;;;;;;8.07;7.37;;;15.80;99.90;;;;;;4973995;28;20188;-75
2022/06/29 02:52:34;;;;;;;8.50;7.80;;;15.70;99.90;;;;;;4973698;28;20199;-75
2022/06/29 02:55:00;;;;;;;7.87;7.27;;;15.70;99.90;;;;;;4974028;28;20418;-75
2022/06/29 02:57:25;;;;;;;8.50;7.50;;;15.70;99.90;;;;;;4973690;28;20183;-74
2022/06/29 02:59:51;;;;;;;7.63;7.10;;;15.60;99.90;;;;;;4973694;28;20204;-75
2022/06/29 03:02:16;;;;;;;7.47;6.87;;;15.60;99.90;;;;;;4973296;28;20282;-74
2022/06/29 03:04:42;;;;;;;7.77;7.03;;;15.60;99.90;;;;;;4973549;28;20675;-75
2022/06/29 03:07:07;;;;;;;8.40;7.63;;;15.60;99.90;;;;;;4973241;28;20180;-74
2022/06/29 03:09:33;;;;;;;8.17;7.47;;;15.60;99.90;;;;;;4973087;28;20188;-75
2022/06/29 03:11:58;;;;;;;7.97;7.37;;;15.60;99.90;;;;;;4972839;28;20596;-75
2022/06/29 03:14:24;;;;;;;7.30;6.80;;;15.60;99.90;;;;;;4973472;28;20207;-75
2022/06/29 03:16:50;;;;;;;7.93;7.20;;;15.60;99.90;;;;;;4972937;28;20179;-75
2022/06/29 03:19:15;;;;;;;8.30;7.47;;;15.60;99.90;;;;;;4972943;28;20253;-73
2022/06/29 03:21:41;;;;;;;8.07;7.37;;;15.60;99.90;;;;;;4972830;28;20262;-75
2022/06/29 03:24:06;;;;;;;8.40;7.17;;;15.60;99.90;;;;;;4973106;28;20582;-74
2022/06/29 03:26:32;;;;;;;7.50;6.90;;;15.60;99.90;;;;;;4971634;28;20223;-74
2022/06/29 03:28:58;;;;;;;8.20;7.50;;;15.60;99.90;;;;;;4972989;28;20176;-75
2022/06/29 03:31:23;;;;;;;8.67;7.87;;;15.60;99.90;;;;;;4972290;28;20223;-74
2022/06/29 03:33:49;;;;;;;7.90;7.10;;;15.60;99.90;;;;;;4973315;28;20182;-75
2022/06/29 03:36:15;;;;;;;15.80;8.77;;;15.60;99.90;;;;;;4973286;28;20679;-75
2022/06/29 03:38:40;;;;;;;8.87;7.93;;;15.60;99.90;;;;;;4972724;28;20199;-74
2022/06/29 03:41:06;;;;;;;9.27;7.73;;;15.60;99.90;;;;;;4972557;28;20246;-74
2022/06/29 03:43:31;;;;;;;7.20;6.63;;;15.60;99.90;;;;;;4972848;28;20549;-74
2022/06/29 03:45:57;;;;;;;7.93;6.93;;;15.60;99.90;;;;;;4975015;28;20172;-75
2022/06/29 03:48:23;;;;;;;8.33;7.60;;;15.60;99.90;;;;;;4973264;28;20184;-75
2022/06/29 03:50:49;;;;;;;8.77;6.70;;;15.70;99.90;;;;;;4972687;28;20470;-75
2022/06/29 03:53:15;;;;;;;7.90;7.13;;;15.70;99.90;;;;;;4972454;28;20564;-75
2022/06/29 03:55:41;;;;;;;9.57;7.67;;;15.70;99.90;;;;;;4976746;28;20431;-75
2022/06/29 03:58:07;;;;;;;7.97;7.47;;;15.70;99.90;;;;;;4976726;28;20839;-75
2022/06/29 04:00:33;;;;;;;8.33;7.70;;;15.80;99.90;;;;;;4976229;28;20246;-73
2022/06/29 04:02:58;;;;;;;8.23;7.53;;;15.80;99.90;;;;;;4976699;28;20422;-74
2022/06/29 04:05:24;;;;;;;7.67;6.77;;;15.80;99.90;;;;;;4976388;28;20172;-75
2022/06/29 04:07:50;;;;;;;9.90;6.43;;;15.90;99.90;;;;;;4976515;28;20255;-74
2022/06/29 04:10:15;;;;;;;11.17;7.13;;;15.90;99.90;;;;;;4976313;28;20195;-74
2022/06/29 04:12:41;;;;;;;8.20;7.60;;;15.90;99.90;;;;;;4976266;28;20195;-74
2022/06/29 04:15:07;;;;;;;7.80;7.10;;;16.00;99.90;;;;;;4976683;28;20187;-75
2022/06/29 04:17:33;;;;;;;9.10;6.87;;;16.10;99.90;;;;;;4976687;28;20208;-75
2022/06/29 04:19:59;;;;;;;7.50;6.90;;;16.10;99.90;;;;;;4976454;28;20889;-75
2022/06/29 04:22:24;;;;;;;7.33;6.63;;;16.30;99.90;;;;;;4976379;28;20443;-73
2022/06/29 04:24:50;;;;;;;7.43;6.80;;;16.30;99.90;;;;;;4976466;28;20520;-75
2022/06/29 04:27:17;;;;;;;7.43;6.77;;;16.40;99.90;;;;;;4976780;28;20744;-75
2022/06/29 04:29:42;;;;;;;7.30;6.70;;;16.50;99.90;;;;;;4976206;28;20419;-75
2022/06/29 04:32:09;;;;;;;8.77;7.90;;;16.50;99.90;;;;;;4976029;28;20538;-75
2022/06/29 04:34:35;;;;;;;7.17;6.57;;;16.70;99.90;;;;;;4976288;28;20180;-75
2022/06/29 04:37:00;;;;;;;8.00;7.30;;;16.80;99.90;;;;;;4976104;28;20772;-75
2022/06/29 04:39:26;;;;;;;7.27;6.67;;;16.90;99.90;;;;;;4975886;28;20208;-75
2022/06/29 04:41:55;;;;;;;7.60;7.00;;;17.00;99.90;;;;;;4975690;28;20200;-75
2022/06/29 04:44:20;;;;;;;7.93;7.23;;;17.10;99.90;;;;;;4974743;28;20176;-76
2022/06/29 04:46:46;;;;;;;7.47;6.87;;;17.10;99.90;;;;;;4975813;28;20486;-75
2022/06/29 04:49:11;;;;;;;6.93;6.33;;;17.30;99.90;;;;;;4975957;28;20176;-73
2022/06/29 04:51:37;;;;;;;7.30;6.40;;;17.30;99.90;;;;;;4975143;28;20204;-75
2022/06/29 04:54:03;;;;;;;11.20;7.07;;;17.50;99.90;;;;;;4976100;28;20206;-73
2022/06/29 04:56:31;;;;;;;6.97;6.37;;;17.50;99.90;;;;;;4975363;28;20181;-75
2022/06/29 04:58:58;;;;;;;7.20;6.60;;;17.60;99.90;;;;;;4975722;28;20404;-75
2022/06/29 05:01:26;;;;;;;9.10;6.30;;;17.80;99.90;;;;;;4975454;28;20467;-75
2022/06/29 05:03:53;;;;;;;8.53;5.80;;;18.20;99.90;;;;;;4975126;28;20416;-75
2022/06/29 05:06:20;;;;;;;7.33;5.37;;;19.50;99.90;;;;;;4975442;28;20422;-75
2022/06/29 05:08:48;;;;;;;5.70;5.10;;;20.90;99.90;;;;;;4975533;28;20423;-75
2022/06/29 05:11:15;;;;;;;5.60;5.20;;;22.30;99.90;;;;;;4975127;28;20489;-75
2022/06/29 05:13:41;;;;;;;5.57;4.47;;;23.70;99.90;;;;;;4974160;28;20558;-75
2022/06/29 05:16:07;;;;;;;4.80;4.43;;;24.40;99.90;;;;;;4975474;28;20427;-76
2022/06/29 05:18:34;;;;;;;7.00;5.30;;;25.10;99.90;;;;;;4975314;28;20408;-75
2022/06/29 05:21:00;;;;;;;6.10;4.53;;;24.80;99.90;;;;;;4975230;28;20208;-75
2022/06/29 05:23:26;;;;;;;5.87;5.37;;;24.00;99.90;;;;;;4975439;28;20422;-75
2022/06/29 05:25:52;;;;;;;5.13;4.73;;;23.50;99.90;;;;;;4975177;28;20323;-75
2022/06/29 05:28:18;;;;;;;9.40;4.80;;;22.90;99.90;;;;;;4975312;28;20180;-76
2022/06/29 05:30:43;;;;;;;5.30;4.90;;;22.50;99.90;;;;;;4973445;28;20782;-75
2022/06/29 05:33:09;;;;;;;4.73;4.43;;;22.90;99.90;;;;;;4974997;28;20180;-75
2022/06/29 05:35:35;;;;;;;5.67;5.17;;;24.10;99.90;;;;;;4975018;28;20176;-75
2022/06/29 05:38:01;;;;;;;5.00;4.70;;;24.60;99.90;;;;;;4975172;28;20617;-75
2022/06/29 05:40:28;;;;;;;8.83;4.83;;;24.80;99.90;;;;;;4974723;28;20218;-75
2022/06/29 05:42:53;;;;;;;4.67;4.30;;;24.80;99.90;;;;;;4974953;28;20435;-75
2022/06/29 05:45:19;;;;;;;5.43;5.10;;;24.90;99.90;;;;;;4977974;28;20412;-76
2022/06/29 05:47:45;;;;;;;4.87;4.57;;;25.20;99.90;;;;;;4975270;28;20256;-75
2022/06/29 05:50:10;;;;;;;7.60;6.00;;;25.00;99.90;;;;;;4974698;28;20172;-75
2022/06/29 05:52:37;;;;;;;6.27;5.67;;;24.60;99.90;;;;;;4974389;28;20196;-76
2022/06/29 05:55:04;;;;;;;6.70;6.13;;;24.00;99.90;;;;;;4974533;28;20665;-75
2022/06/29 05:57:29;;;;;;;6.70;6.20;;;24.10;99.90;;;;;;4974482;28;21007;-75
2022/06/29 05:59:54;;;;;;;6.37;5.77;;;24.20;99.90;;;;;;4974406;28;20549;-76
2022/06/29 06:02:20;;;;;;;8.53;6.57;;;24.40;99.90;;;;;;4974163;28;20305;-76
2022/06/29 06:04:45;;;;;;;12.43;7.53;;;24.40;99.90;;;;;;4974334;28;20187;-76
2022/06/29 06:07:11;;;;;;;7.23;6.73;;;24.60;99.90;;;;;;4975546;28;20180;-76
2022/06/29 06:09:36;;;;;;;7.47;6.80;;;24.80;99.90;;;;;;4975543;28;20264;-75
2022/06/29 06:12:02;;;;;;;6.63;6.20;;;25.00;99.90;;;;;;4974338;28;20215;-76
2022/06/29 06:14:28;;;;;;;7.63;6.93;;;24.90;99.90;;;;;;4974001;28;20671;-75
2022/06/29 06:16:53;;;;;;;7.27;6.77;;;25.10;99.90;;;;;;4973270;28;20184;-75
2022/06/29 06:19:19;;;;;;;10.70;7.40;;;25.20;99.90;;;;;;4974002;28;20207;-75
2022/06/29 06:21:44;;;;;;;8.20;6.77;;;25.50;99.90;;;;;;4973691;28;20211;-75
2022/06/29 06:24:10;;;;;;;7.17;6.67;;;25.70;99.90;;;;;;4974228;28;20184;-75
2022/06/29 06:26:35;;;;;;;7.80;6.43;;;26.00;99.90;;;;;;4973851;28;20179;-76
2022/06/29 06:29:01;;;;;;;7.13;6.20;;;26.30;99.90;;;;;;4974084;28;20176;-75
2022/06/29 06:31:27;;;;;;;7.00;6.30;;;26.80;99.90;;;;;;4973414;28;20204;-75
2022/06/29 06:33:54;;;;;;;6.33;5.83;;;27.20;99.90;;;;;;4973950;28;20184;-76
2022/06/29 06:36:19;;;;;;;6.03;4.67;;;27.30;99.90;;;;;;4974001;28;20794;-76
2022/06/29 06:38:45;;;;;;;4.97;4.57;;;27.20;99.90;;;;;;4973922;28;20415;-75
2022/06/29 06:41:23;;;;;;;5.90;5.30;;;27.30;99.90;;;;;;4973322;28;20222;-75
2022/06/29 06:43:53;;;;;;;5.87;5.23;;;27.40;99.90;;;;;;4973795;28;20180;-75
2022/06/29 06:46:19;;;;;;;10.40;5.50;;;27.30;99.90;;;;;;4973560;28;20779;-75
2022/06/29 06:48:45;;;;;;;6.73;4.20;;;27.60;99.90;;;;;;4973456;28;20782;-76
2022/06/29 06:51:12;;;;;;;4.53;4.23;;;27.50;99.90;;;;;;4973205;28;20435;-75
2022/06/29 06:53:38;;;;;;;5.70;5.23;;;27.40;99.90;;;;;;4973490;28;20180;-75
2022/06/29 06:56:05;;;;;;;4.73;4.23;;;27.50;99.90;;;;;;4973563;28;20491;-74
2022/06/29 06:58:30;;;;;;;5.47;4.97;;;27.60;99.90;;;;;;4973770;28;20420;-76
2022/06/29 07:00:56;;;;;;;6.63;4.80;;;27.70;99.90;;;;;;4973159;28;20510;-76
2022/06/29 07:03:21;;;;;;;4.37;4.07;;;27.80;99.90;;;;;;4973373;28;20176;-76
2022/06/29 07:05:47;;;;;;;4.77;4.37;;;28.30;99.90;;;;;;4973793;28;20184;-76
2022/06/29 07:08:13;;;;;;;4.70;4.27;;;28.80;99.90;;;;;;4973421;28;20727;-76
2022/06/29 07:10:38;;;;;;;4.80;4.40;;;28.70;99.90;;;;;;4973091;28;20235;-76
2022/06/29 07:13:04;;;;;;;5.27;4.70;;;28.90;99.90;;;;;;4971842;28;20653;-74
2022/06/29 07:15:29;;;;;;;9.00;5.33;;;28.90;99.90;;;;;;4973186;28;20192;-76
2022/06/29 07:17:55;;;;;;;5.43;4.93;;;28.60;99.90;;;;;;4973390;28;20677;-76
2022/06/29 07:20:21;;;;;;;6.03;5.43;;;28.70;99.90;;;;;;4971798;28;20629;-75
2022/06/29 07:22:46;;;;;;;5.50;5.10;;;28.60;99.90;;;;;;4973179;28;20443;-76
2022/06/29 07:25:12;;;;;;;6.33;5.33;;;28.40;99.90;;;;;;4973182;28;20649;-74
2022/06/29 07:27:37;;;;;;;9.13;6.10;;;28.60;99.90;;;;;;4972825;28;20172;-75
2022/06/29 07:30:04;;;;;;;6.93;5.70;;;28.70;99.90;;;;;;4972879;28;20176;-75
2022/06/29 07:32:30;;;;;;;7.13;5.40;;;28.80;99.90;;;;;;4972697;28;20241;-76
2022/06/29 07:34:56;;;;;;;6.40;5.90;;;28.70;99.90;;;;;;4973327;28;20423;-76
2022/06/29 07:37:22;;;;;;;6.83;6.10;;;28.40;99.90;;;;;;4972934;28;20883;-75
2022/06/29 07:39:47;;;;;;;7.53;5.97;;;28.30;99.90;;;;;;4972936;28;20239;-76
2022/06/29 07:42:13;;;;;;;7.03;6.13;;;28.50;99.90;;;;;;4972571;28;20196;-76
2022/06/29 07:44:38;;;;;;;10.23;6.40;;;28.60;99.90;;;;;;4973877;28;20183;-76
2022/06/29 07:47:04;;;;;;;12.70;7.23;;;28.30;99.90;;;;;;4973894;28;20303;-76
2022/06/29 07:49:30;;;;;;;11.57;6.33;;;28.40;99.90;;;;;;4972961;28;20552;-76
2022/06/29 07:51:56;;;;;;;10.10;6.43;;;28.40;99.90;;;;;;4972970;28;20192;-76
2022/06/29 07:54:22;;;;;;;7.53;6.87;;;28.60;99.90;;;;;;4972111;28;20421;-76
2022/06/29 07:56:47;;;;;;;10.53;6.10;;;28.80;99.90;;;;;;4972893;28;20215;-76
2022/06/29 07:59:13;;;;;;;8.27;6.37;;;29.00;99.90;;;;;;4972683;28;20474;-76
2022/06/29 08:01:38;;;;;;;13.90;7.63;;;29.10;99.90;;;;;;4972368;28;20694;-76
2022/06/29 08:04:04;;;;;;;7.03;6.33;;;29.20;99.90;;;;;;4972945;28;20199;-75
2022/06/29 08:06:30;;;;;;;5.80;5.13;;;29.20;99.90;;;;;;4972667;28;20180;-76
2022/06/29 08:08:55;;;;;;;7.13;6.07;;;29.10;99.90;;;;;;4972916;28;20184;-76
2022/06/29 08:11:21;;;;;;;6.93;6.37;;;29.20;99.90;;;;;;4972557;28;20255;-76
2022/06/29 08:13:47;;;;;;;6.93;6.00;;;29.00;99.90;;;;;;4972671;28;20255;-75
2022/06/29 08:16:12;;;;;;;6.70;6.10;;;29.20;99.90;;;;;;4973065;28;20185;-76
2022/06/29 08:18:38;;;;;;;4.90;4.50;;;29.00;99.90;;;;;;4972780;28;20287;-75
2022/06/29 08:21:04;;;;;;;5.63;5.20;;;29.20;99.90;;;;;;4972445;28;20238;-76
2022/06/29 08:23:30;;;;;;;7.60;5.67;;;29.70;99.90;;;;;;4972703;28;20258;-75
2022/06/29 08:25:56;;;;;;;6.07;5.43;;;29.80;99.90;;;;;;4972605;28;20971;-76
2022/06/29 08:28:23;;;;;;;6.10;5.60;;;29.70;99.90;;;;;;4972898;28;20423;-76
2022/06/29 08:30:49;;;;;;;6.60;5.00;;;30.00;99.90;;;;;;4972317;28;20423;-75
2022/06/29 08:33:14;;;;;;;4.53;4.13;;;30.20;99.90;;;;;;4972644;28;20434;-76
2022/06/29 08:35:41;;;;;;;5.50;5.00;;;30.60;99.90;;;;;;4972414;28;20187;-76
2022/06/29 08:38:07;;;;;;;5.67;4.93;;;31.10;99.90;;;;;;4973033;28;20569;-76
2022/06/29 08:40:44;;;;;;;5.90;5.50;;;31.30;99.90;;;;;;4974340;28;20473;-74
2022/06/29 08:43:17;;;;;;;4.57;4.23;;;31.10;99.90;;;;;;4976111;28;20415;-76
2022/06/29 08:45:46;;;;;;;5.97;5.43;;;30.70;99.90;;;;;;4975926;28;20478;-76
2022/06/29 08:48:13;;;;;;;6.10;5.43;;;30.50;99.90;;;;;;4975803;28;20435;-76
2022/06/29 08:50:40;;;;;;;5.57;5.13;;;30.30;99.90;;;;;;4975124;28;20434;-76
2022/06/29 08:53:09;;;;;;;5.40;4.93;;;30.60;99.90;;;;;;4976244;28;20412;-76
2022/06/29 08:55:42;;;;;;;5.30;5.00;;;31.20;99.90;;;;;;4975761;28;20514;-76
2022/06/29 08:58:09;;;;;;;7.30;5.60;;;31.60;99.90;;;;;;4975899;28;20412;-75
2022/06/29 09:00:38;;;;;;;5.77;5.27;;;31.60;99.90;;;;;;4974997;28;20510;-74
2022/06/29 09:03:04;;;;;;;7.73;4.93;;;32.10;99.90;;;;;;4974448;28;20419;-76
2022/06/29 09:05:31;;;;;;;5.03;4.63;;;32.20;99.90;;;;;;4975618;28;20514;-76
2022/06/29 09:07:56;;;;;;;8.40;5.17;;;32.50;99.90;;;;;;4975721;28;20188;-76
2022/06/29 09:10:23;;;;;;;8.90;5.43;;;32.50;99.90;;;;;;4975592;28;20916;-76
2022/06/29 09:12:52;;;;;;;6.00;5.50;;;32.10;99.90;;;;;;4975310;28;20207;-76
2022/06/29 09:15:33;;;;;;;7.37;5.53;;;31.40;99.90;;;;;;4975629;28;20415;-76
2022/06/29 09:18:01;;;;;;;7.70;4.77;;;30.80;99.90;;;;;;4975642;28;20926;-76
2022/06/29 09:20:42;;;;;;;5.87;5.57;;;30.20;99.90;;;;;;4975092;28;20454;-77
2022/06/29 09:23:09;;;;;;;8.03;5.47;;;30.10;99.90;;;;;;4975193;28;20499;-76
2022/06/29 09:25:39;;;;;;;5.70;5.20;;;30.20;99.90;;;;;;4974766;28;20901;-76
2022/06/29 09:28:22;;;;;;;8.43;5.50;;;30.00;99.90;;;;;;4974944;28;20494;-76
2022/06/29 09:30:47;;;;;;;5.67;5.27;;;29.80;99.90;;;;;;4974606;28;20435;-76
2022/06/29 09:33:13;;;;;;;4.40;4.00;;;30.30;99.90;;;;;;4974907;28;20932;-76
2022/06/29 09:35:40;;;;;;;5.13;4.73;;;30.70;99.90;;;;;;4974720;28;20262;-76
2022/06/29 09:38:26;;;;;;;4.67;4.37;;;30.50;99.90;;;;;;4974914;28;20251;-76
2022/06/29 09:41:02;;;;;;;6.00;5.40;;;30.20;99.90;;;;;;4974476;28;20559;-76
2022/06/29 09:43:29;;;;;;;4.70;4.40;;;29.50;99.90;;;;;;4974922;28;20423;-76
2022/06/29 09:45:55;;;;;;;5.27;4.87;;;29.10;99.90;;;;;;4976413;28;20563;-76
2022/06/29 09:48:23;;;;;;;6.20;5.70;;;28.70;99.90;;;;;;4974629;28;20435;-76
2022/06/29 09:50:53;;;;;;;6.53;5.40;;;28.30;99.90;;;;;;4973218;28;20561;-76
2022/06/29 09:53:39;;;;;;;7.57;5.00;;;27.70;99.90;;;;;;4974796;28;20423;-76
2022/06/29 09:56:06;;;;;;;6.23;5.50;;;27.50;99.90;;;;;;4974781;28;20924;-76
2022/06/29 09:58:41;;;;;;;5.43;4.93;;;27.30;99.90;;;;;;4974421;28;20454;-76
2022/06/29 10:03:54;;;;;;;4.90;4.60;;;27.10;99.90;;;;;;4974522;28;20441;-76
2022/06/29 10:06:21;;;;;;;4.80;4.17;;;27.00;99.90;;;;;;4974506;28;20454;-76
2022/06/29 10:08:47;;;;;;;4.63;4.33;;;26.80;99.90;;;;;;4974318;28;20526;-76
2022/06/29 10:14:41;;;;;;;11.50;4.20;;;26.70;99.90;;;;;;4973634;28;20462;-76
2022/06/29 10:17:23;;;;;;;4.77;4.37;;;26.80;99.90;;;;;;4974190;28;20506;-76
2022/06/29 10:20:12;;;;;;;5.57;5.17;;;26.80;99.90;;;;;;4973894;28;20474;-76
2022/06/29 10:22:39;;;;;;;4.23;3.83;;;26.80;99.90;;;;;;4973768;28;20443;-76
2022/06/29 10:25:05;;;;;;;4.17;3.83;;;26.90;99.90;;;;;;4973943;28;20419;-76
2022/06/29 10:27:31;;;;;;;6.33;4.30;;;27.00;99.90;;;;;;4973820;28;20427;-76
2022/06/29 10:30:23;;;;;;;5.10;4.27;;;27.10;99.90;;;;;;4974228;28;20419;-76
2022/06/29 10:32:50;;;;;;;3.80;3.57;;;27.40;99.90;;;;;;4973898;28;20447;-76
2022/06/29 10:35:15;;;;;;;4.43;4.13;;;27.50;99.90;;;;;;4973789;28;20415;-76
2022/06/29 10:37:52;;;;;;;5.73;4.73;;;27.60;99.90;;;;;;4973623;28;20531;-76
2022/06/29 10:40:22;;;;;;;4.13;3.80;;;27.70;99.90;;;;;;4973449;28;20211;-76
2022/06/29 10:45:35;;;;;;;4.83;4.43;;;27.40;99.90;;;;;;4973695;28;20422;-76
2022/06/29 10:48:07;;;;;;;7.50;4.27;;;27.30;99.90;;;;;;4973751;28;20450;-75
2022/06/29 10:50:38;;;;;;;7.00;4.43;;;27.30;99.90;;;;;;4973285;28;20596;-75
2022/06/29 10:53:05;;;;;;;5.43;4.90;;;27.20;99.90;;;;;;4973619;28;20446;-76
2022/06/29 10:55:33;;;;;;;4.40;4.00;;;27.20;99.90;;;;;;4974139;28;20931;-76
2022/06/29 10:58:00;;;;;;;4.13;3.80;;;27.30;99.90;;;;;;4974727;28;20415;-76
2022/06/29 11:00:31;;;;;;;4.37;4.00;;;27.30;99.90;;;;;;4974709;28;20830;-76
2022/06/29 11:03:05;;;;;;;14.93;4.57;;;27.30;99.90;;;;;;4973948;28;20943;-76
2022/06/29 11:05:33;;;;;;;4.87;4.53;;;27.40;99.90;;;;;;4973102;28;20853;-76
2022/06/29 11:13:29;;;;;;;4.63;4.30;;;27.40;99.90;;;;;;4973412;28;20489;-76
2022/06/29 11:15:59;;;;;;;3.53;3.00;;;27.30;99.90;;;;;;4973071;28;20420;-76
2022/06/29 11:18:27;;;;;;;4.93;4.07;;;27.50;99.90;;;;;;4973182;28;20456;-76
2022/06/29 11:20:54;;;;;;;5.67;3.93;;;27.70;99.90;;;;;;4972790;28;20451;-76
2022/06/29 11:23:27;;;;;;;4.27;4.03;;;27.90;99.90;;;;;;4972839;28;20980;-76
2022/06/29 11:25:54;;;;;;;6.57;3.87;;;27.60;99.90;;;;;;4973151;28;20412;-76
2022/06/29 11:28:27;;;;;;;5.73;3.77;;;27.90;99.90;;;;;;4971600;28;20494;-76
2022/06/29 11:31:04;;;;;;;5.20;4.00;;;28.30;99.90;;;;;;4973019;28;20419;-77
2022/06/29 11:33:36;;;;;;;4.00;3.77;;;28.60;99.90;;;;;;4972724;28;20419;-76
2022/06/29 11:36:15;;;;;;;5.97;4.10;;;29.00;99.90;;;;;;4973036;28;20831;-76
2022/06/29 11:38:43;;;;;;;5.80;3.50;;;29.00;99.90;;;;;;4972824;28;20418;-76
2022/06/29 11:41:20;;;;;;;4.30;3.90;;;29.20;99.90;;;;;;4972665;28;20876;-76
2022/06/29 11:44:04;;;;;;;4.23;3.90;;;29.30;99.90;;;;;;4972910;28;20421;-76
2022/06/29 11:46:36;;;;;;;4.03;3.63;;;29.30;99.90;;;;;;4972601;28;20510;-76
2022/06/29 11:51:56;;;;;;;3.80;3.37;;;29.40;99.90;;;;;;4973288;28;20835;-76
2022/06/29 11:54:38;;;;;;;3.70;3.40;;;29.80;99.90;;;;;;4972681;28;20811;-76
2022/06/29 11:57:16;;;;;;;4.50;3.77;;;29.80;99.90;;;;;;4972816;28;20407;-76
2022/06/29 11:59:44;;;;;;;6.27;4.37;;;29.50;99.90;;;;;;4972995;28;20518;-76
2022/06/29 12:02:12;;;;;;;5.73;3.40;;;29.20;99.90;;;;;;4972556;28;20956;-76
2022/06/29 12:04:40;;;;;;;4.77;4.27;;;28.70;99.90;;;;;;4972432;28;20412;-75
2022/06/29 12:07:09;;;;;;;5.13;3.57;;;28.50;99.90;;;;;;4972346;28;20491;-75
2022/06/29 12:09:37;;;;;;;4.20;3.70;;;28.20;99.90;;;;;;4972430;28;20442;-75
2022/06/29 12:12:04;;;;;;;4.20;3.80;;;28.30;99.90;;;;;;4972347;28;20431;-76
2022/06/29 12:14:29;;;;;;;4.20;3.90;;;28.60;99.90;;;;;;4973354;28;20912;-76
2022/06/29 12:16:55;;;;;;;3.67;3.07;;;28.90;99.90;;;;;;4976373;28;20442;-76
2022/06/29 12:19:22;;;;;;;4.07;2.90;;;29.20;99.90;;;;;;4976206;28;20176;-76
2022/06/29 12:21:48;;;;;;;8.77;4.53;;;29.30;99.90;;;;;;4975888;28;20970;-76
2022/06/29 12:24:15;;;;;;;3.20;2.90;;;29.30;99.90;;;;;;4976634;28;20962;-76
2022/06/29 12:26:40;;;;;;;4.10;3.53;;;29.20;99.90;;;;;;4975883;28;20469;-76
2022/06/29 12:29:06;;;;;;;5.47;4.03;;;29.40;99.90;;;;;;4976117;28;20827;-76
2022/06/29 12:31:32;;;;;;;3.93;3.47;;;29.20;99.90;;;;;;4975434;28;20765;-75
2022/06/29 12:33:57;;;;;;;8.30;3.63;;;28.90;99.90;;;;;;4976009;28;20229;-76
2022/06/29 12:36:23;;;;;;;6.93;3.87;;;28.60;99.90;;;;;;4974690;28;20184;-76
2022/06/29 12:38:48;;;;;;;4.73;3.80;;;28.60;99.90;;;;;;4976001;28;20218;-75
2022/06/29 12:41:14;;;;;;;4.87;3.80;;;28.40;99.90;;;;;;4975594;28;20224;-76
2022/06/29 12:43:39;;;;;;;4.23;3.30;;;28.60;99.90;;;;;;4975716;28;20191;-76
2022/06/29 12:46:06;;;;;;;4.13;3.60;;;29.00;99.90;;;;;;4975695;28;20180;-75
2022/06/29 12:48:31;;;;;;;3.80;2.90;;;29.20;99.90;;;;;;4975756;28;20172;-76
2022/06/29 12:50:57;;;;;;;3.03;2.60;;;29.10;99.90;;;;;;4975375;28;20466;-76
2022/06/29 12:53:22;;;;;;;4.73;3.40;;;29.10;99.90;;;;;;4975562;28;20235;-75
2022/06/29 12:55:48;;;;;;;8.77;3.00;;;29.00;99.90;;;;;;4975639;28;20191;-75
2022/06/29 12:58:13;;;;;;;4.27;2.77;;;29.10;99.90;;;;;;4975723;28;20239;-76
2022/06/29 13:00:39;;;;;;;3.53;3.20;;;29.00;99.90;;;;;;4975044;28;20335;-75
2022/06/29 13:03:05;;;;;;;3.97;2.90;;;29.20;99.90;;;;;;4975538;28;20187;-76
2022/06/29 13:05:31;;;;;;;3.60;3.37;;;29.20;99.90;;;;;;4975286;28;20491;-75
2022/06/29 13:07:56;;;;;;;5.93;3.67;;;29.10;99.90;;;;;;4975405;28;20525;-76
2022/06/29 13:10:22;;;;;;;3.83;2.77;;;29.10;99.90;;;;;;4975338;28;20428;-75
2022/06/29 13:12:48;;;;;;;5.43;3.27;;;28.80;99.90;;;;;;4975085;28;20216;-75
2022/06/29 13:15:13;;;;;;;10.50;4.90;;;28.80;99.90;;;;;;4975337;28;20183;-75
2022/06/29 13:17:39;;;;;;;3.67;3.37;;;28.80;99.90;;;;;;4975034;28;20184;-75
2022/06/29 13:20:08;;;;;;;6.40;2.93;;;29.00;99.90;;;;;;4975037;28;20214;-76
2022/06/29 13:22:34;;;;;;;3.20;2.90;;;29.20;99.90;;;;;;4974629;28;20584;-74
2022/06/29 13:24:59;;;;;;;3.50;3.20;;;29.40;99.90;;;;;;4974777;28;20424;-76
2022/06/29 13:27:25;;;;;;;6.43;3.70;;;29.50;99.90;;;;;;4974931;28;20203;-76
2022/06/29 13:29:50;;;;;;;5.10;3.60;;;29.50;99.90;;;;;;4974908;28;20180;-75
2022/06/29 13:32:16;;;;;;;3.63;3.40;;;29.50;99.90;;;;;;4974500;28;20231;-75
2022/06/29 13:34:41;;;;;;;5.50;4.20;;;29.60;99.90;;;;;;4974850;28;20188;-75
2022/06/29 13:37:07;;;;;;;4.17;3.37;;;29.20;99.90;;;;;;4974789;28;20219;-77
2022/06/29 13:39:32;;;;;;;4.97;3.50;;;29.10;99.90;;;;;;4974444;28;20208;-75
2022/06/29 13:42:00;;;;;;;10.23;3.97;;;29.00;99.90;;;;;;4974445;28;20199;-75
2022/06/29 13:44:25;;;;;;;4.43;4.00;;;28.80;99.90;;;;;;4974856;28;20175;-76
2022/06/29 13:46:51;;;;;;;3.73;3.40;;;28.70;99.90;;;;;;4975583;28;20412;-76
2022/06/29 13:49:16;;;;;;;5.20;4.00;;;28.70;99.90;;;;;;4976793;28;20176;-75
2022/06/29 13:51:42;;;;;;;4.07;3.77;;;28.50;99.90;;;;;;4974335;28;20633;-76
2022/06/29 13:54:07;;;;;;;4.30;3.97;;;28.40;99.90;;;;;;4974714;28;20179;-76
2022/06/29 13:56:33;;;;;;;3.83;3.57;;;28.70;99.90;;;;;;4974416;28;20176;-76
2022/06/29 13:58:58;;;;;;;3.63;3.40;;;28.90;99.90;;;;;;4974405;28;20196;-76
2022/06/29 14:01:24;;;;;;;3.33;3.10;;;29.00;99.90;;;;;;4974052;28;20709;-75
2022/06/29 14:03:50;;;;;;;5.20;3.77;;;29.10;99.90;;;;;;4974314;28;20171;-76
2022/06/29 14:06:16;;;;;;;5.93;3.87;;;29.00;99.90;;;;;;4974268;28;20180;-76
2022/06/29 14:08:42;;;;;;;3.90;3.60;;;29.10;99.90;;;;;;4973954;28;20545;-76
2022/06/29 14:11:08;;;;;;;4.33;4.03;;;29.00;99.90;;;;;;4974441;28;20436;-76
2022/06/29 14:13:34;;;;;;;3.73;3.43;;;28.80;99.90;;;;;;4975067;28;20180;-76
2022/06/29 14:16:00;;;;;;;4.70;3.70;;;28.80;99.90;;;;;;4974655;28;20757;-76
2022/06/29 14:18:26;;;;;;;4.40;4.00;;;28.70;99.90;;;;;;4974299;28;20422;-76
2022/06/29 14:20:51;;;;;;;3.47;3.37;;;28.60;99.90;;;;;;4973891;28;20458;-75
2022/06/29 14:23:17;;;;;;;4.27;3.97;;;28.70;99.90;;;;;;4973715;28;20637;-75
2022/06/29 14:25:42;;;;;;;4.27;3.70;;;28.70;99.90;;;;;;4973867;28;20176;-75
2022/06/29 14:28:08;;;;;;;4.37;3.60;;;28.50;99.90;;;;;;4973989;28;20172;-76
2022/06/29 14:30:34;;;;;;;4.27;3.97;;;28.60;99.90;;;;;;4973707;28;20202;-74
2022/06/29 14:32:59;;;;;;;9.43;3.60;;;28.50;99.90;;;;;;4973687;28;20223;-76
2022/06/29 14:35:25;;;;;;;7.30;4.07;;;28.50;99.90;;;;;;4973829;28;20176;-76